Need to find an answer? Our pilot handbook has all of the resources that you would need to pass this exam.

vUA Handbook


What is the maximum landing rate allowed at vUAL according to the pilot manual?

Which of the following aircraft are you allowed to fly as a First Officer?

What is the maximum airspeed allowed below 10,000 feet in the U.S.?

Which of the following is not a United hub?

When flying above 18,000 feet MSL, what is the appropriate altimeter setting in the United States?

The winds are blowing from 220 degrees at 10 knots. What runway would you most likely land on?

When traveling Instrument Flight Rules on a westbound heading, what are the proper flight levels to use?

Decode the following METAR: KORD 232124Z 04018G21KT 10SM SCT026 11/05 A3015 RMK AO2. What are the current winds?

How long must a pilot be part of this VA before they can file a Leave of Absence (LOA)?

What is the purpose of a rudder?